Coatbridge, United Kingdom
Current Conditions -  °F | °C
As of 1:20 PM on Thursday 27 Nov 2014 (Local Time) from EGPF Reporting Station
Overcast Overcast  
Wind Chill: 43°   Ceiling: 800
Heat Index: 46°   Visibility: 5mi
Dew Point: 45°   Wind: 7mph
Humidity: 93%   Direction: 60°ENE
Pressure: 29.59"   Gusts: NA
Location:  55.86°N, 4.03°W
Report Text: EGPF 271320Z AUTO 06006KT 8000 OVC008 08/07 Q1002
Loading
Personal Weather Stations






























Interactive Weather Map New forecast layout! Learn more

10-Day Weather Forecast

Advertisements
Track Severe Weather on mobile